Archival Weather

Downtown Manhattan/Wall St

New York, Downtown Manhattan/Wall St (KJRB)

Report from: Friday, February 23, 2024 12:56 PM EST
Current time: Wednesday, May 29, 2024 7:46 PM EDT

Current weather – Weather history – Daily summaries
Weather forecast

Present weatherLight rain
Temperature7.8°C (46.0°F)
Dew point5.0°C (41.0°F)
Winds Calm
Visibility9 mi. (14.5 km)
Clouds Ceiling: Overcast 1,600 ft. (488 m)
Altimeter29.49 in.Hg (999 mB)
Relative humidity82 %
Density altitude-230 ft. (-70 m)
Sea-level pressure99.8 kPa (998 mB, 29.48 in.Hg)
Max temp last 6 hours7.8°C (46.0°F)
Min temp last 6 hours5.6°C (42.1°F)
Remarks Fully automated report
System requires maintenance
Automated weather observing station with precipitation discriminator
Precipitation sensor not operating
Pressure falling more quickly
Flight conditions Marginal Visual Meteorological Conditions
Raw dataKJRB 231756Z AUTO 00000KT 9SM -RA OVC016 08/05 A2949 RMK AO2 SLP984 6//// T00780050 10078 20056 58016 PNO $
An error has occurred. This application may no longer respond until reloaded. Reload 🗙